Time;durP1;ratioP1;P1;durP2;ratioP2;P2;SDS_P1;SDS_P2;PMS_P1;PMS_P2;Temp;Humidity;BMP_temperature;BMP_pressure;BME280_temperature;BME280_humidity;BME280_pressure;Samples;Min_cycle;Max_cycle;Signal;HPM_P1;HPM_P2
2022/06/01 00:01:27;;;;;;;41.03;35.35;;;;;;;-145.45;100.00;62759.84;5374696;27;20015;-84
2022/06/01 00:03:59;;;;;;;40.97;36.10;;;;;;;-145.45;100.00;62759.84;5372764;27;20067;-84
2022/06/01 00:06:35;;;;;;;44.78;39.97;;;;;;;-145.45;100.00;62759.84;5355432;27;20377;-85
2022/06/01 00:09:24;;;;;;;49.38;42.47;;;;;;;-145.45;100.00;62759.84;5371183;27;20415;-86
2022/06/01 00:11:58;;;;;;;47.63;42.10;;;;;;;-145.45;100.00;62759.84;5348752;27;20035;-85
2022/06/01 00:14:30;;;;;;;47.35;42.13;;;;;;;-145.45;100.00;62759.84;5349472;27;20114;-85
2022/06/01 00:17:04;;;;;;;49.22;43.75;;;;;;;-145.45;100.00;62759.84;5369233;27;20468;-85
2022/06/01 00:19:36;;;;;;;47.83;42.13;;;;;;;-145.45;100.00;62759.84;5371232;27;20051;-85
2022/06/01 00:22:11;;;;;;;46.08;41.03;;;;;;;-145.45;100.00;62759.84;5370282;27;20012;-85
2022/06/01 00:24:47;;;;;;;49.17;43.22;;;;;;;-145.45;100.00;62759.84;5349846;27;20075;-86
2022/06/01 00:27:21;;;;;;;48.75;43.45;;;;;;;-145.45;100.00;62759.84;5349782;27;20027;-85
2022/06/01 00:29:57;;;;;;;50.00;43.83;;;;;;;-145.45;100.00;62759.84;5368068;27;20439;-85
2022/06/01 00:32:29;;;;;;;51.80;43.30;;;;;;;-145.45;100.00;62759.84;5369288;27;20201;-85
2022/06/01 00:35:10;;;;;;;50.72;45.25;;;;;;;-145.45;100.00;62759.84;5368747;27;20376;-85
2022/06/01 00:37:42;;;;;;;48.63;43.33;;;;;;;-145.45;100.00;62759.84;5369235;27;20016;-86
2022/06/01 00:40:16;;;;;;;47.35;42.28;;;;;;;-145.45;100.00;62759.84;5368831;27;20090;-85
2022/06/01 00:42:53;;;;;;;50.90;45.33;;;;;;;-145.45;100.00;62759.84;5373558;27;20455;-85
2022/06/01 00:45:29;;;;;;;48.13;41.85;;;;;;;-145.45;100.00;62759.84;5350081;27;20019;-85
2022/06/01 00:48:03;;;;;;;47.42;42.22;;;;;;;-145.45;100.00;62759.84;5349482;27;20064;-85
2022/06/01 00:50:46;;;;;;;43.70;39.03;;;;;;;-145.45;100.00;62759.84;5349063;27;20030;-85
2022/06/01 00:53:22;;;;;;;46.30;41.30;;;;;;;-145.45;100.00;62759.84;5348877;27;20110;-86
2022/06/01 00:55:58;;;;;;;47.45;42.40;;;;;;;-145.45;100.00;62759.84;5348566;27;20396;-85
2022/06/01 00:58:52;;;;;;;46.55;41.72;;;;;;;-145.45;100.00;62759.84;5347504;27;20070;-86
2022/06/01 01:01:24;;;;;;;48.42;43.03;;;;;;;-145.45;100.00;62759.84;5348480;27;20520;-86
2022/06/01 01:04:00;;;;;;;45.00;40.17;;;;;;;-145.45;100.00;62759.84;5368014;27;20022;-85
2022/06/01 01:06:43;;;;;;;40.95;36.63;;;;;;;-145.45;100.00;62759.84;5367696;27;20035;-86
2022/06/01 01:09:15;;;;;;;49.45;44.00;;;;;;;-145.45;100.00;62759.84;5364314;27;20026;-85
2022/06/01 01:11:54;;;;;;;47.92;43.03;;;;;;;-145.45;100.00;62759.84;5346941;27;20012;-86
2022/06/01 01:14:29;;;;;;;51.72;44.55;;;;;;;-145.45;100.00;62759.84;5349261;27;20039;-86
2022/06/01 01:17:08;;;;;;;51.03;44.72;;;;;;;-145.45;100.00;62759.84;5350005;27;20019;-86
2022/06/01 01:19:51;;;;;;;51.17;45.67;;;;;;;-145.45;100.00;62759.84;5330919;27;20054;-85
2022/06/01 01:22:44;;;;;;;41.78;37.15;;;;;;;-145.45;100.00;62759.84;5349402;27;20027;-85
2022/06/01 01:25:24;;;;;;;45.38;40.40;;;;;;;-145.45;100.00;62759.84;5330116;27;20144;-86
2022/06/01 01:27:59;;;;;;;48.97;43.85;;;;;;;-145.45;100.00;62759.84;5331253;27;20018;-85
2022/06/01 01:30:44;;;;;;;49.58;44.10;;;;;;;-145.45;100.00;62759.84;5349051;27;20054;-86
2022/06/01 01:33:21;;;;;;;47.83;42.67;;;;;;;-145.45;100.00;62759.84;5330411;27;20541;-86
2022/06/01 01:35:56;;;;;;;44.80;39.92;;;;;;;-145.45;100.00;62759.84;5330707;27;20110;-86
2022/06/01 01:38:40;;;;;;;49.78;44.53;;;;;;;-145.45;100.00;62759.84;5329565;27;20048;-86
2022/06/01 01:41:26;;;;;;;44.83;40.22;;;;;;;-145.45;100.00;62759.84;5330743;27;20115;-86
2022/06/01 01:44:21;;;;;;;50.85;45.35;;;;;;;-145.45;100.00;62759.84;5330332;27;20391;-85
2022/06/01 01:46:54;;;;;;;47.47;42.42;;;;;;;-145.45;100.00;62759.84;5349859;27;20034;-86
2022/06/01 01:49:30;;;;;;;51.88;46.08;;;;;;;-145.45;100.00;62759.84;5331674;27;20017;-86
2022/06/01 01:52:04;;;;;;;;;;;;;;;-145.45;100.00;62759.84;5338801;27;20019;-86
2022/06/01 01:54:54;;;;;;;50.55;45.05;;;;;;;-145.45;100.00;62759.84;5354767;27;20299;-86
2022/06/01 01:57:48;;;;;;;45.70;40.92;;;;;;;-145.45;100.00;62759.84;5340666;27;20027;-86
2022/06/01 02:00:30;;;;;;;50.72;44.55;;;;;;;-145.45;100.00;62759.84;5376845;27;20022;-86
2022/06/01 02:03:08;;;;;;;50.83;43.80;;;;;;;-145.45;100.00;62759.84;5364125;27;20072;-86
2022/06/01 02:06:04;;;;;;;52.22;46.00;;;;;;;-145.45;100.00;62759.84;5364312;27;20037;-86
2022/06/01 02:08:46;;;;;;;53.47;47.67;;;;;;;-145.45;100.00;62759.84;5361300;27;20443;-86
2022/06/01 02:14:19;;;;;;;52.78;45.90;;;;;;;-145.45;100.00;62759.84;5370752;27;20437;-87
2022/06/01 02:16:59;;;;;;;51.10;45.50;;;;;;;-145.45;100.00;62759.84;5352660;27;20123;-86
2022/06/01 02:19:57;;;;;;;51.95;45.67;;;;;;;-145.45;100.00;62759.84;5351556;27;20047;-86
2022/06/01 02:22:29;;;;;;;;;;;;;;;-145.45;100.00;62759.84;5370880;27;20054;-86
2022/06/01 02:25:01;;;;;;;56.45;49.08;;;;;;;-145.45;100.00;62759.84;5350755;27;19976;-86
2022/06/01 02:27:34;;;;;;;56.83;48.50;;;;;;;-145.45;100.00;62759.84;5351965;27;20019;-85
2022/06/01 02:30:17;;;;;;;58.25;50.55;;;;;;;-145.45;100.00;62759.84;5351608;27;20471;-87
2022/06/01 02:32:49;;;;;;;56.08;48.92;;;;;;;-145.45;100.00;62759.84;5351796;27;20511;-86
2022/06/01 02:35:24;;;;;;;58.38;49.33;;;;;;;-145.45;100.00;62759.84;5370408;27;20024;-86
2022/06/01 02:37:57;;;;;;;56.25;46.75;;;;;;;-145.45;100.00;62759.84;5351372;27;20019;-86
2022/06/01 02:40:30;;;;;;;58.70;49.05;;;;;;;-145.45;100.00;62759.84;5352193;27;20031;-86
2022/06/01 02:43:04;;;;;;;55.08;46.58;;;;;;;-145.45;100.00;62759.84;5351664;27;20020;-86
2022/06/01 02:45:35;;;;;;;51.28;44.60;;;;;;;-145.45;100.00;62759.84;5351120;27;20487;-85
2022/06/01 02:48:07;;;;;;;57.50;46.15;;;;;;;-145.45;100.00;62759.84;5351287;27;20019;-86
2022/06/01 02:50:38;;;;;;;55.63;46.63;;;;;;;-145.45;100.00;62759.84;5351194;27;20059;-86
2022/06/01 02:53:10;;;;;;;56.08;46.40;;;;;;;-145.45;100.00;62759.84;5351504;27;20019;-86
2022/06/01 02:55:42;;;;;;;54.05;43.47;;;;;;;-145.45;100.00;62759.84;5350646;27;20160;-85
2022/06/01 02:58:13;;;;;;;50.95;42.15;;;;;;;-145.45;100.00;62759.84;5350891;27;20484;-86
2022/06/01 03:00:45;;;;;;;54.95;45.42;;;;;;;-145.45;100.00;62759.84;5351174;27;20020;-86
2022/06/01 03:03:18;;;;;;;56.85;46.58;;;;;;;-145.45;100.00;62759.84;5350732;27;20030;-86
2022/06/01 03:05:50;;;;;;;53.53;45.20;;;;;;;-145.45;100.00;62759.84;5351103;27;20023;-86
2022/06/01 03:08:21;;;;;;;55.30;44.38;;;;;;;-145.45;100.00;62759.84;5351067;27;20019;-86
2022/06/01 03:10:54;;;;;;;51.83;42.38;;;;;;;-145.45;100.00;62759.84;5350086;27;20028;-86
2022/06/01 03:13:32;;;;;;;55.60;44.33;;;;;;;-145.45;100.00;62759.84;5351320;27;20020;-86
2022/06/01 03:16:06;;;;;;;53.90;43.97;;;;;;;-145.45;100.00;62759.84;5349911;27;20601;-86
2022/06/01 03:18:38;;;;;;;53.50;44.03;;;;;;;-145.45;100.00;62759.84;5350101;27;20054;-86
2022/06/01 03:21:09;;;;;;;57.92;45.72;;;;;;;-145.45;100.00;62759.84;5350514;27;20036;-86
2022/06/01 03:23:44;;;;;;;53.10;44.20;;;;;;;-145.45;100.00;62759.84;5350559;27;20031;-86
2022/06/01 03:26:35;;;;;;;56.13;45.35;;;;;;;-145.45;100.00;62759.84;5350336;27;20035;-85
2022/06/01 03:29:35;;;;;;;55.40;43.92;;;;;;;-145.45;100.00;62759.84;5349073;27;20463;-86
2022/06/01 03:32:27;;;;;;;54.75;42.03;;;;;;;-145.45;100.00;62759.84;5347191;27;20070;-86
2022/06/01 03:35:11;;;;;;;56.97;44.42;;;;;;;-145.45;100.00;62759.84;5349621;27;20035;-86
2022/06/01 03:37:58;;;;;;;56.60;46.08;;;;;;;-145.45;100.00;62759.84;5350702;27;20429;-87
2022/06/01 03:40:33;;;;;;;;;;;;;;;-145.45;100.00;62759.84;5351169;27;20069;-86
2022/06/01 03:43:19;;;;;;;57.75;44.83;;;;;;;-145.45;100.00;62759.84;5348425;27;19926;-86
2022/06/01 03:45:58;;;;;;;59.92;44.53;;;;;;;-145.45;100.00;62759.84;5350332;27;20043;-85
2022/06/01 03:48:35;;;;;;;54.30;43.47;;;;;;;-145.45;100.00;62759.84;5350266;27;20157;-86
2022/06/01 03:51:20;;;;;;;54.53;42.90;;;;;;;-145.45;100.00;62759.84;5351558;27;20443;-85
2022/06/01 03:54:02;;;;;;;52.65;41.47;;;;;;;-145.45;100.00;62759.84;5350837;27;20038;-86
2022/06/01 03:57:16;;;;;;;49.53;42.53;;;;;;;-145.45;100.00;62759.84;5349331;27;20039;-86
2022/06/01 03:59:58;;;;;;;50.72;38.58;;;;;;;-145.45;100.00;62759.84;5335669;27;20031;-86
2022/06/01 04:02:42;;;;;;;50.35;38.22;;;;;;;-145.45;100.00;62759.84;5348052;27;20099;-86
2022/06/01 04:05:30;;;;;;;51.35;40.72;;;;;;;-145.45;100.00;62759.84;5347521;27;20467;-86
2022/06/01 04:08:20;;;;;;;49.72;39.30;;;;;;;-145.45;100.00;62759.84;5328229;27;20118;-86
2022/06/01 04:11:17;;;;;;;52.67;39.30;;;;;;;-145.45;100.00;62759.84;5345215;27;20035;-86
2022/06/01 04:13:49;;;;;;;44.97;37.83;;;;;;;-145.45;100.00;62759.84;5327643;27;20031;-86
2022/06/01 04:16:32;;;;;;;49.22;38.28;;;;;;;-145.45;100.00;62759.84;5328299;27;20059;-86
2022/06/01 04:19:04;;;;;;;48.03;35.95;;;;;;;-145.45;100.00;62759.84;5327412;27;20039;-86
2022/06/01 04:21:46;;;;;;;46.60;35.20;;;;;;;-145.45;100.00;62759.84;5330355;27;20046;-86
2022/06/01 04:24:28;;;;;;;45.42;35.28;;;;;;;-145.45;100.00;62759.84;5333594;27;20099;-86
2022/06/01 04:31:00;;;;;;;;;;;;;;;;;;;;;
2022/06/01 04:33:53;;;;;;;46.55;35.72;;;;;;;-145.45;100.00;62759.84;5366790;27;42574;-86
2022/06/01 04:37:14;;;;;;;;;;;;;;;;;;;;;
2022/06/01 04:39:58;;;;;;;47.38;34.50;;;;;;;-145.45;100.00;62759.84;5367464;27;40504;-86
2022/06/01 04:42:42;;;;;;;46.65;36.92;;;;;;;-145.45;100.00;62759.84;5368040;27;20110;-85
2022/06/01 04:45:27;;;;;;;48.38;37.13;;;;;;;-145.45;100.00;62759.84;5347513;27;20046;-86
2022/06/01 04:48:23;;;;;;;40.67;33.47;;;;;;;-145.45;100.00;62759.84;5350115;27;20491;-86
2022/06/01 04:51:01;;;;;;;49.70;36.88;;;;;;;-145.45;100.00;62759.84;5352690;27;20117;-85
2022/06/01 04:53:43;;;;;;;46.13;34.08;;;;;;;-145.45;100.00;62759.84;5352641;27;20352;-86
2022/06/01 04:56:23;;;;;;;44.35;33.13;;;;;;;-145.45;100.00;62759.84;5352374;27;20027;-85
2022/06/01 04:58:58;;;;;;;42.03;33.67;;;;;;;-145.45;100.00;62759.84;5371479;27;20096;-86
2022/06/01 05:01:33;;;;;;;40.45;31.63;;;;;;;-145.45;100.00;62759.84;5353295;27;20100;-85
2022/06/01 05:04:10;;;;;;;38.45;30.52;;;;;;;-145.45;100.00;62759.84;5371923;27;20045;-86
2022/06/01 05:06:52;;;;;;;36.90;31.35;;;;;;;-145.45;100.00;62759.84;5352465;27;20561;-85
2022/06/01 05:09:27;;;;;;;33.65;28.05;;;;;;;-145.45;100.00;62759.84;5347867;27;20511;-85
2022/06/01 05:12:02;;;;;;;36.28;25.67;;;;;;;-145.45;100.00;62759.84;5349575;27;20090;-86
2022/06/01 05:14:37;;;;;;;31.48;26.00;;;;;;;-145.45;100.00;62759.84;5330799;27;20023;-85
2022/06/01 05:17:20;;;;;;;36.65;24.63;;;;;;;-145.45;100.00;62759.84;5330734;27;20059;-86
2022/06/01 05:20:07;;;;;;;27.33;23.73;;;;;;;-145.45;100.00;62759.84;5330447;27;20028;-86
2022/06/01 05:22:49;;;;;;;27.17;22.83;;;;;;;-145.45;100.00;62759.84;5331111;27;20047;-87
2022/06/01 05:25:25;;;;;;;26.52;22.55;;;;;;;-145.45;100.00;62759.84;5331072;27;20028;-86
2022/06/01 05:27:58;;;;;;;20.63;18.27;;;;;;;-145.45;100.00;62759.84;5331831;27;20070;-87
2022/06/01 05:30:48;;;;;;;20.50;17.90;;;;;;;-145.45;100.00;62759.84;5331571;27;20027;-87
2022/06/01 05:33:28;;;;;;;19.45;17.45;;;;;;;-145.45;100.00;62759.84;5334438;27;20015;-87
2022/06/01 05:36:23;;;;;;;21.20;16.77;;;;;;;-145.45;100.00;62759.84;5338320;27;20053;-86
2022/06/01 05:38:56;;;;;;;19.55;16.25;;;;;;;-145.45;100.00;62759.84;5357599;27;20020;-86
2022/06/01 05:41:33;;;;;;;19.58;14.15;;;;;;;-145.45;100.00;62759.84;5338690;27;20483;-86
2022/06/01 05:44:10;;;;;;;18.25;14.50;;;;;;;-145.45;100.00;62759.84;5336986;27;20031;-86
2022/06/01 05:46:56;;;;;;;16.88;12.90;;;;;;;-145.45;100.00;62759.84;5356640;27;20067;-86
2022/06/01 05:49:48;;;;;;;17.15;12.85;;;;;;;-145.45;100.00;62759.84;5354455;27;20459;-87
2022/06/01 05:56:16;;;;;;;;;;;;;;;;;;;;;
2022/06/01 05:58:56;;;;;;;13.55;11.30;;;;;;;-145.45;100.00;62759.84;5335664;27;43155;-88
2022/06/01 06:01:44;;;;;;;15.02;11.95;;;;;;;-145.45;100.00;62759.84;5343053;27;20051;-86
2022/06/01 06:04:22;;;;;;;12.23;10.68;;;;;;;-145.45;100.00;62759.84;5353264;27;20018;-86
2022/06/01 06:07:05;;;;;;;14.40;10.35;;;;;;;-145.45;100.00;62759.84;5349905;27;20036;-86
2022/06/01 06:09:37;;;;;;;10.30;9.27;;;;;;;-145.45;100.00;62759.84;5344517;27;20081;-87
2022/06/01 06:12:10;;;;;;;14.77;10.50;;;;;;;-145.45;100.00;62759.84;5341227;27;20442;-87
2022/06/01 06:17:58;;;;;;;12.63;10.45;;;;;;;-145.45;100.00;62759.84;5356163;27;20016;-85
2022/06/01 06:20:39;;;;;;;10.00;8.70;;;;;;;-145.45;100.00;62759.84;5350612;27;20534;-85
2022/06/01 06:23:18;;;;;;;12.38;8.55;;;;;;;-145.45;100.00;62759.84;5350306;27;20039;-85
2022/06/01 06:26:04;;;;;;;12.25;9.35;;;;;;;-145.45;100.00;62759.84;5360036;27;20043;-85
2022/06/01 06:28:59;;;;;;;11.90;8.98;;;;;;;-145.45;100.00;62759.84;5361614;27;20019;-85
2022/06/01 06:34:30;;;;;;;9.15;6.80;;;;;;;-145.45;100.00;62759.84;5373199;27;20051;-86
2022/06/01 06:37:08;;;;;;;11.07;7.50;;;;;;;-145.45;100.00;62759.84;5360832;27;20492;-86
2022/06/01 06:39:49;;;;;;;11.52;8.52;;;;;;;-145.45;100.00;62759.84;5337960;27;20043;-86
2022/06/01 06:42:32;;;;;;;8.50;7.30;;;;;;;-145.45;100.00;62759.84;5335294;27;20040;-86
2022/06/01 06:45:30;;;;;;;16.17;7.13;;;;;;;-145.45;100.00;62759.84;5332384;27;20137;-86
2022/06/01 06:48:08;;;;;;;11.35;6.88;;;;;;;-145.45;100.00;62759.84;5330964;27;20399;-86
2022/06/01 06:51:08;;;;;;;12.43;7.40;;;;;;;-145.45;100.00;62759.84;5348478;27;20387;-85
2022/06/01 06:53:58;;;;;;;11.30;6.97;;;;;;;-145.45;100.00;62759.84;5329351;27;20027;-86
2022/06/01 06:56:47;;;;;;;10.35;7.10;;;;;;;-145.45;100.00;62759.84;5329568;27;20115;-85
2022/06/01 06:59:30;;;;;;;9.40;6.70;;;;;;;-145.45;100.00;62759.84;5329330;27;20028;-85
2022/06/01 07:02:13;;;;;;;11.02;7.10;;;;;;;-145.45;100.00;62759.84;5329498;27;20051;-86
2022/06/01 07:04:56;;;;;;;10.82;7.97;;;;;;;-145.45;100.00;62759.84;5329449;27;20099;-85
2022/06/01 07:07:39;;;;;;;7.95;5.78;;;;;;;-145.45;100.00;62759.84;5346737;27;20020;-85
2022/06/01 07:10:14;;;;;;;9.13;6.60;;;;;;;-145.45;100.00;62759.84;5328168;27;20016;-85
2022/06/01 07:12:52;;;;;;;10.10;6.32;;;;;;;-145.45;100.00;62759.84;5329782;27;20046;-85
2022/06/01 07:15:26;;;;;;;9.90;6.00;;;;;;;-145.45;100.00;62759.84;5328141;27;20032;-86
2022/06/01 07:18:01;;;;;;;9.63;6.10;;;;;;;-145.45;100.00;62759.84;5346168;27;20024;-85
2022/06/01 07:20:35;;;;;;;11.07;6.47;;;;;;;-145.45;100.00;62759.84;5328732;27;20401;-86
2022/06/01 07:23:07;;;;;;;10.68;6.28;;;;;;;-145.45;100.00;62759.84;5348177;27;20084;-85
2022/06/01 07:25:39;;;;;;;8.00;5.82;;;;;;;-145.45;100.00;62759.84;5346925;27;20031;-85
2022/06/01 07:28:22;;;;;;;10.35;5.97;;;;;;;-145.45;100.00;62759.84;5347586;27;20099;-86
2022/06/01 07:30:57;;;;;;;11.50;7.05;;;;;;;-145.45;100.00;62759.84;5328260;27;20022;-85
2022/06/01 07:33:35;;;;;;;8.45;6.65;;;;;;;-145.45;100.00;62759.84;5346193;27;20522;-85
2022/06/01 07:36:12;;;;;;;11.18;6.05;;;;;;;-145.45;100.00;62759.84;5328992;27;20023;-86
2022/06/01 07:44:53;;;;;;;7.57;5.50;;;;;;;-145.45;100.00;62759.84;5289905;27;20161;-85
2022/06/01 07:47:25;;;;;;;6.07;4.40;;;;;;;-145.45;100.00;62759.84;5329289;27;20020;-86
2022/06/01 07:50:00;;;;;;;6.93;4.55;;;;;;;-145.45;100.00;62759.84;5328967;27;20054;-85
2022/06/01 07:52:31;;;;;;;5.38;3.88;;;;;;;-145.45;100.00;62759.84;5328295;27;20501;-85
2022/06/01 07:55:10;;;;;;;5.18;3.20;;;;;;;-145.45;100.00;62759.84;5328829;27;20019;-86
2022/06/01 07:57:50;;;;;;;5.90;3.55;;;;;;;-145.45;100.00;62759.84;5328801;27;20015;-86
2022/06/01 08:00:23;;;;;;;4.32;3.63;;;;;;;-145.45;100.00;62759.84;5346767;27;20411;-85
2022/06/01 08:03:00;;;;;;;9.70;4.50;;;;;;;-145.45;100.00;62759.84;5350619;27;20038;-85
2022/06/01 08:05:38;;;;;;;6.18;4.13;;;;;;;-145.45;100.00;62759.84;5349985;27;20027;-85
2022/06/01 08:08:09;;;;;;;5.40;4.43;;;;;;;-145.45;100.00;62759.84;5369404;27;20029;-85
2022/06/01 08:10:46;;;;;;;5.60;4.80;;;;;;;-145.45;100.00;62759.84;5350387;27;20011;-85
2022/06/01 08:13:18;;;;;;;6.57;5.18;;;;;;;-145.45;100.00;62759.84;5349586;27;20038;-85
2022/06/01 08:16:04;;;;;;;;;;;;;;;;;;;;;
2022/06/01 08:18:39;;;;;;;7.85;3.50;;;;;;;-145.45;100.00;62759.84;5368008;27;40280;-85
2022/06/01 08:21:13;;;;;;;3.70;2.88;;;;;;;-145.45;100.00;62759.84;5345220;27;20044;-85
2022/06/01 08:24:00;;;;;;;5.25;3.15;;;;;;;-145.45;100.00;62759.84;5344533;27;20111;-85
2022/06/01 08:26:47;;;;;;;5.40;3.22;;;;;;;-145.45;100.00;62759.84;5346362;27;20063;-85
2022/06/01 08:29:39;;;;;;;4.72;3.35;;;;;;;-145.45;100.00;62759.84;5342910;27;20028;-85
2022/06/01 08:32:18;;;;;;;5.38;3.30;;;;;;;-145.45;100.00;62759.84;5346923;27;20031;-85
2022/06/01 08:34:53;;;;;;;4.50;3.03;;;;;;;-145.45;100.00;62759.84;5345253;27;20105;-85
2022/06/01 08:37:41;;;;;;;5.22;3.10;;;;;;;-145.45;100.00;62759.84;5345112;27;20023;-85
2022/06/01 08:40:15;;;;;;;4.25;2.92;;;;;;;-145.45;100.00;62759.84;5344784;27;20015;-85
2022/06/01 08:43:12;;;;;;;3.15;2.65;;;;;;;-145.45;100.00;62759.84;5346776;27;20023;-84
2022/06/01 08:45:51;;;;;;;5.82;3.35;;;;;;;-145.45;100.00;62759.84;5345860;27;20043;-85
2022/06/01 08:48:48;;;;;;;3.83;3.40;;;;;;;-145.45;100.00;62759.84;5335730;27;20024;-86
2022/06/01 08:51:30;;;;;;;4.28;3.45;;;;;;;-145.45;100.00;62759.84;5323286;28;20507;-85
2022/06/01 08:54:05;;;;;;;4.28;3.10;;;;;;;-145.45;100.00;62759.84;5323366;28;20469;-85
2022/06/01 08:56:51;;;;;;;3.22;2.40;;;;;;;-145.45;100.00;62759.84;5341199;27;20107;-85
2022/06/01 08:59:50;;;;;;;;;;;;;;;;;;;;;
2022/06/01 09:03:10;;;;;;;;;;;;;;;;;;;;;
2022/06/01 09:05:52;;;;;;;3.38;2.00;;;;;;;-145.45;100.00;62759.84;5324189;28;41785;-85
2022/06/01 09:09:03;;;;;;;4.68;2.15;;;;;;;-145.45;100.00;62759.84;5323308;28;20033;-85
2022/06/01 09:11:42;;;;;;;3.60;2.00;;;;;;;-145.45;100.00;62759.84;5331937;27;20028;-85
2022/06/01 09:14:39;;;;;;;3.88;2.20;;;;;;;-145.45;100.00;62759.84;5344765;27;20031;-85
2022/06/01 09:17:20;;;;;;;4.50;2.25;;;;;;;-145.45;100.00;62759.84;5344535;27;20047;-85
2022/06/01 09:22:53;;;;;;;5.60;3.25;;;;;;;-145.45;100.00;62759.84;5368381;27;20047;-86
2022/06/01 09:26:06;;;;;;;5.30;3.20;;;;;;;-145.45;100.00;62759.84;5347667;27;20479;-85
2022/06/01 09:29:02;;;;;;;;;;;;;;;;;;;;;
2022/06/01 09:32:08;;;;;;;5.88;2.97;;;;;;;-145.45;100.00;62759.84;5366374;27;41882;-85
2022/06/01 09:36:27;;;;;;;4.60;2.95;;;;;;;-145.45;100.00;62759.84;5351110;27;20023;-85
2022/06/01 09:39:01;;;;;;;1.98;1.60;;;;;;;-145.45;100.00;62759.84;5373948;27;20038;-85
2022/06/01 09:41:50;;;;;;;2.58;1.70;;;;;;;-145.45;100.00;62759.84;5394231;27;20040;-85
2022/06/01 09:44:42;;;;;;;2.10;1.60;;;;;;;-145.45;100.00;62759.84;5384298;27;20027;-85
2022/06/01 09:47:51;;;;;;;2.30;1.75;;;;;;;-145.45;100.00;62759.84;5382227;27;20042;-85
2022/06/01 09:50:42;;;;;;;3.35;2.20;;;;;;;-145.45;100.00;62759.84;5375842;27;20027;-85
2022/06/01 09:53:29;;;;;;;4.28;1.83;;;;;;;-145.45;100.00;62759.84;5388632;27;20007;-85
2022/06/01 09:56:07;;;;;;;4.28;1.85;;;;;;;-145.45;100.00;62759.84;5372250;27;20015;-85
2022/06/01 10:07:31;;;;;;;8.98;2.50;;;;;;;-145.45;100.00;62759.84;5371909;27;20110;-86
2022/06/01 10:10:22;;;;;;;4.00;2.92;;;;;;;-145.45;100.00;62759.84;5373427;27;20051;-87
2022/06/01 10:13:00;;;;;;;5.90;3.20;;;;;;;-145.45;100.00;62759.84;5371481;27;20081;-86
2022/06/01 10:15:51;;;;;;;4.75;3.15;;;;;;;-145.45;100.00;62759.84;5353787;27;20043;-87
2022/06/01 10:18:33;;;;;;;9.48;4.07;;;;;;;-145.45;100.00;62759.84;5350332;27;20405;-86
2022/06/01 10:21:17;;;;;;;9.32;5.88;;;;;;;-145.45;100.00;62759.84;5351481;27;20155;-86
2022/06/01 10:24:05;;;;;;;8.27;5.38;;;;;;;-145.45;100.00;62759.84;5370919;27;20061;-87
2022/06/01 10:26:45;;;;;;;7.38;3.47;;;;;;;-145.45;100.00;62759.84;5352341;27;20047;-86
2022/06/01 10:29:19;;;;;;;3.65;3.35;;;;;;;-145.45;100.00;62759.84;5371122;27;20039;-86
2022/06/01 10:32:03;;;;;;;4.82;3.40;;;;;;;-145.45;100.00;62759.84;5352924;27;20493;-87
2022/06/01 10:38:51;;;;;;;;;;;;;;;;;;;;;
2022/06/01 10:42:16;;;;;;;3.22;2.92;;;;;;;-145.45;100.00;62759.84;5369398;27;40563;-87
2022/06/01 10:45:13;;;;;;;5.35;3.20;;;;;;;-145.45;100.00;62759.84;5351035;27;20475;-87
2022/06/01 10:51:46;;;;;;;3.40;2.60;;;;;;;-145.45;100.00;62759.84;5368811;27;20035;-87
2022/06/01 10:54:45;;;;;;;4.40;2.08;;;;;;;-145.45;100.00;62759.84;5370133;27;20027;-86
2022/06/01 10:57:26;;;;;;;2.83;1.60;;;;;;;-145.45;100.00;62759.84;5305122;27;20035;-86
2022/06/01 11:00:00;;;;;;;3.67;1.73;;;;;;;-145.45;100.00;62759.84;5350004;27;20035;-86
2022/06/01 11:02:53;;;;;;;3.83;2.05;;;;;;;-145.45;100.00;62759.84;5351290;27;20023;-86
2022/06/01 11:05:38;;;;;;;3.75;2.45;;;;;;;-145.45;100.00;62759.84;5329280;27;20078;-86
2022/06/01 11:08:38;;;;;;;2.55;2.00;;;;;;;-145.45;100.00;62759.84;5348662;27;20062;-86
2022/06/01 11:11:36;;;;;;;3.40;2.20;;;;;;;-145.45;100.00;62759.84;5348748;27;20102;-85
2022/06/01 11:14:40;;;;;;;3.25;2.15;;;;;;;-145.45;100.00;62759.84;5328635;27;20032;-86
2022/06/01 11:17:42;;;;;;;3.38;1.95;;;;;;;-145.45;100.00;62759.84;5329543;27;20758;-85
2022/06/01 11:20:51;;;;;;;2.97;2.45;;;;;;;-145.45;100.00;62759.84;5323867;28;20586;-86
2022/06/01 11:23:57;;;;;;;4.80;2.40;;;;;;;-145.45;100.00;62759.84;5326532;27;20028;-86
2022/06/01 11:27:13;;;;;;;3.83;2.28;;;;;;;-145.45;100.00;62759.84;5324737;28;20130;-86
2022/06/01 11:30:47;;;;;;;3.13;1.75;;;;;;;-145.45;100.00;62759.84;5279795;28;20040;-86
2022/06/01 11:33:31;;;;;;;2.10;1.40;;;;;;;-145.45;100.00;62759.84;5324913;28;20043;-86
2022/06/01 11:36:45;;;;;;;;;;;;;;;;;;;;;
2022/06/01 11:39:55;;;;;;;2.25;1.45;;;;;;;-145.45;100.00;62759.84;5325848;28;41443;-85
2022/06/01 11:42:59;;;;;;;2.25;1.13;;;;;;;-145.45;100.00;62759.84;5341909;27;20035;-86
2022/06/01 11:45:38;;;;;;;7.00;1.80;;;;;;;-145.45;100.00;62759.84;5346141;27;20019;-85
2022/06/01 11:48:14;;;;;;;1.65;1.50;;;;;;;-145.45;100.00;62759.84;5346391;27;20027;-85
2022/06/01 11:51:13;;;;;;;3.00;2.15;;;;;;;-145.45;100.00;62759.84;5346391;27;20047;-85
2022/06/01 11:54:00;;;;;;;3.00;2.08;;;;;;;-145.45;100.00;62759.84;5345833;27;20038;-85
2022/06/01 11:56:50;;;;;;;2.25;2.08;;;;;;;-145.45;100.00;62759.84;5346303;27;20020;-85
2022/06/01 11:59:30;;;;;;;6.35;2.10;;;;;;;-145.45;100.00;62759.84;5346399;27;20027;-85
2022/06/01 12:02:40;;;;;;;3.88;1.95;;;;;;;-145.45;100.00;62759.84;5347196;27;20027;-85
2022/06/01 12:05:26;;;;;;;2.50;1.60;;;;;;;-145.45;100.00;62759.84;5346164;27;20070;-85
2022/06/01 12:08:08;;;;;;;2.55;1.52;;;;;;;-145.45;100.00;62759.84;5357778;27;20019;-85
2022/06/01 12:11:00;;;;;;;3.08;1.20;;;;;;;-145.45;100.00;62759.84;5361599;27;20020;-84
2022/06/01 12:13:38;;;;;;;2.42;1.50;;;;;;;-145.45;100.00;62759.84;5360327;27;20039;-85
2022/06/01 12:16:19;;;;;;;4.93;1.83;;;;;;;-145.45;100.00;62759.84;5362147;27;20012;-84
2022/06/01 12:19:29;;;;;;;3.92;1.70;;;;;;;-145.45;100.00;62759.84;5359814;27;20020;-84
2022/06/01 12:28:30;;;;;;;3.92;1.58;;;;;;;-145.45;100.00;62759.84;5358113;27;20063;-85
2022/06/01 12:31:17;;;;;;;3.22;0.80;;;;;;;-145.45;100.00;62759.84;5359777;27;20039;-84
2022/06/01 12:34:21;;;;;;;1.73;0.80;;;;;;;-145.45;100.00;62759.84;5347807;27;20154;-85
2022/06/01 12:37:11;;;;;;;2.55;1.00;;;;;;;-145.45;100.00;62759.84;5345513;27;20023;-84
2022/06/01 12:39:50;;;;;;;0.60;0.60;;;;;;;-145.45;100.00;62759.84;5345585;27;20024;-85
2022/06/01 12:42:30;;;;;;;3.08;0.80;;;;;;;-145.45;100.00;62759.84;5346846;27;20345;-85
2022/06/01 12:45:24;;;;;;;1.35;0.75;;;;;;;-145.45;100.00;62759.84;5346333;27;20107;-86
2022/06/01 12:48:04;;;;;;;1.45;0.60;;;;;;;-145.45;100.00;62759.84;5347749;27;20019;-85
2022/06/01 12:50:59;;;;;;;1.63;1.10;;;;;;;-145.45;100.00;62759.84;5345224;27;20111;-85
2022/06/01 12:53:50;;;;;;;1.48;0.85;;;;;;;-145.45;100.00;62759.84;5346612;27;20472;-84
2022/06/01 12:56:27;;;;;;;1.52;0.82;;;;;;;-145.45;100.00;62759.84;5346720;27;20106;-85
2022/06/01 12:58:58;;;;;;;1.88;0.80;;;;;;;-145.45;100.00;62759.84;5343729;27;20045;-84
2022/06/01 13:01:32;;;;;;;0.70;0.70;;;;;;;-145.45;100.00;62759.84;5345247;27;20507;-84
2022/06/01 13:04:04;;;;;;;1.83;0.90;;;;;;;-145.45;100.00;62759.84;5334835;27;20797;-83
2022/06/01 13:06:43;;;;;;;3.75;1.20;;;;;;;-145.45;100.00;62759.84;5325188;28;20123;-84
2022/06/01 13:09:21;;;;;;;1.30;0.88;;;;;;;-145.45;100.00;62759.84;5342492;27;20366;-84
2022/06/01 13:11:59;;;;;;;1.38;1.00;;;;;;;-145.45;100.00;62759.84;5327150;28;20075;-84
2022/06/01 13:14:33;;;;;;;5.13;1.10;;;;;;;-145.45;100.00;62759.84;5344203;27;20027;-84
2022/06/01 13:17:14;;;;;;;2.35;0.90;;;;;;;-145.45;100.00;62759.84;5328716;27;20054;-84